Monteview, ID

8:15 AM MDT on September 02, 2014 (GMT -0600)
Fanning | Change Station
CLOSE
Current Station
Airport
Location: Idaho Falls,
Elevation: 4741 ft
Nearby Weather Stations

Elev 4741 ft 43.51 °N, 112.07 °W | Updated 22 minutes ago

Clear
Clear
51 °F
Feels Like 51 °F
N
7
Wind Variable Wind from SSW

Today
High -- | Low -- °F
--% Chance of Precip.
Yesterday
High -- | Low -- °F
Precip. -- in
6:54 AM 8:03 PM
First Quarter, 52% visible
Pressure 29.98 in
Visibility 10.0 miles
Clouds Clear
Dew Point 39 °F
Humidity 63%
Rainfall 0.00 in
Snow Depth Not available.
UV 0 out of 12
Pollen 8.10 out of 12
PM2.5 Good
Flu Activity Not available.
METAR KIDA 021353Z 21006KT 10SM CLR 11/04 A3006 RMK AO2 SLP151 T01060039

More Conditions Fewer Conditions

Pressure 29.98 in
Visibility 10.0 miles
Clouds Clear
Dew Point 39 °F
Humidity 63%
Rainfall 0.00 in
Snow Depth Not available.
UV 0 out of 12
Pollen 8.10 out of 12
PM2.5 Good
Flu Activity Not available.
METAR KIDA 021353Z 21006KT 10SM CLR 11/04 A3006 RMK AO2 SLP151 T01060039

More Conditions Fewer Conditions

10-Day Weather Forecast

Almanac

Astronomy

Sep. 02, 2014 Rise Set
Actual Time 6:54 AM MDT 8:03 PM MDT
Civil Twilight 6:25 AM MDT 8:33 PM MDT
Nautical Twilight 5:49 AM MDT 9:08 PM MDT
Astronomical Twilight 5:12 AM MDT 9:46 PM MDT
Moon 2:57 PM MDT No Moon Set
Length of Visible Light 14h 08m
Length of Day
13h 09m
Tomorrow will be 2m 53s shorter.
First Quarter, 52% of the Moon is Illuminated
Today
First Quarter
Sep 8
Full
Sep 15
Last Quarter
Sep 24
New
Oct 1
First Quarter

Today's Extremes

State Highs State Lows

Community

WunderPhotos

Upload Photos

1,749,677 photos uploaded!

WunderBlogs® & News

Nearby

Air Quality

  Air Quality AQ Index Pollutant
Yesterday Good
PM2.5
Current Good
PM2.5
Tuesday Good
PM2.5
Wednesday Good
PM2.5

Snow Depth

Station Depth Elevation
Crab Creek 0 in 6860 ft
Hilts Creek 0 in 8000 ft
Island Park 0 in 6290 ft
Pine Creek Pass 0 in 6720 ft
Bear Canyon 0 in 7900 ft

Earthquake Activity

City Distance Mag. Time & Date
Driggs, Idaho 82 miles 3.8 2:09 PM MDT
2014-08-30
Minimum magnitude displayed is 2.5.

Coastal Water Temperatures

Place Temperature
No Stations Reporting

Nearby Weather Stations